Time;durP1;ratioP1;P1;durP2;ratioP2;P2;SDS_P1;SDS_P2;PMS_P1;PMS_P2;Temp;Humidity;BMP_temperature;BMP_pressure;BME280_temperature;BME280_humidity;BME280_pressure;Samples;Min_cycle;Max_cycle;Signal;HPM_P1;HPM_P2
2022/10/06 00:00:23;;;;;;;6.07;4.00;;;12.30;99.90;;;;;;5055301;28;20179;-88
2022/10/06 00:03:14;;;;;;;4.33;3.57;;;12.30;99.90;;;;;;5058712;28;20204;-89
2022/10/06 00:05:41;;;;;;;5.50;3.73;;;12.30;99.90;;;;;;5036772;28;20292;-90
2022/10/06 00:08:07;;;;;;;6.33;4.20;;;12.30;99.90;;;;;;5034379;28;20177;-89
2022/10/06 00:10:32;;;;;;;6.50;4.30;;;12.30;99.90;;;;;;5035997;28;20178;-89
2022/10/06 00:12:58;;;;;;;5.63;4.53;;;12.30;99.90;;;;;;5052458;28;20198;-89
2022/10/06 00:15:28;;;;;;;4.17;3.73;;;12.30;99.90;;;;;;5039187;28;20218;-89
2022/10/06 00:17:55;;;;;;;5.43;4.00;;;12.30;99.90;;;;;;5039376;28;20178;-90
2022/10/06 00:20:22;;;;;;;5.83;3.80;;;12.30;99.90;;;;;;5038864;28;20244;-90
2022/10/06 00:22:48;;;;;;;7.10;4.03;;;12.30;99.90;;;;;;5039227;28;20303;-89
2022/10/06 00:25:20;;;;;;;6.77;4.20;;;12.30;99.90;;;;;;5039149;28;20295;-90
2022/10/06 00:27:48;;;;;;;4.97;4.03;;;12.30;99.90;;;;;;5038891;28;20165;-90
2022/10/06 00:30:23;;;;;;;7.83;4.27;;;12.20;99.90;;;;;;5039480;28;20195;-90
2022/10/06 00:32:58;;;;;;;4.93;3.70;;;12.20;99.90;;;;;;5039478;28;20196;-89
2022/10/06 00:35:26;;;;;;;4.20;3.53;;;12.20;99.90;;;;;;5039249;28;20188;-90
2022/10/06 00:37:52;;;;;;;5.63;3.97;;;12.10;99.90;;;;;;5038708;28;20205;-89
2022/10/06 00:40:18;;;;;;;3.70;3.40;;;12.20;99.90;;;;;;5038618;28;20172;-89
2022/10/06 00:42:48;;;;;;;4.03;3.63;;;12.20;99.90;;;;;;5038296;28;20282;-88
2022/10/06 00:45:15;;;;;;;6.37;3.60;;;12.30;99.90;;;;;;5054486;28;20192;-88
2022/10/06 00:47:41;;;;;;;6.13;3.33;;;12.30;99.90;;;;;;5038168;28;20188;-88
2022/10/06 00:50:10;;;;;;;3.57;3.10;;;12.30;99.90;;;;;;5038724;28;20180;-88
2022/10/06 00:52:37;;;;;;;4.10;3.00;;;12.30;99.90;;;;;;5038458;28;20287;-88
2022/10/06 00:55:08;;;;;;;4.00;3.43;;;12.20;99.90;;;;;;5039029;28;20176;-87
2022/10/06 00:57:37;;;;;;;5.57;3.80;;;12.20;99.90;;;;;;5038666;28;20275;-88
2022/10/06 01:00:07;;;;;;;4.90;3.80;;;12.10;99.90;;;;;;5055045;28;20182;-88
2022/10/06 01:02:42;;;;;;;4.53;3.70;;;12.00;99.90;;;;;;5038693;28;20726;-88
2022/10/06 01:05:15;;;;;;;4.00;3.60;;;12.10;99.90;;;;;;5038856;28;20218;-88
2022/10/06 01:07:41;;;;;;;6.93;4.30;;;12.10;99.90;;;;;;5038236;28;20172;-88
2022/10/06 01:10:07;;;;;;;3.80;3.47;;;12.10;99.90;;;;;;5037314;28;20176;-89
2022/10/06 01:12:35;;;;;;;5.03;3.10;;;12.00;99.90;;;;;;5018920;28;20706;-89
2022/10/06 01:15:01;;;;;;;5.93;3.57;;;11.90;99.90;;;;;;5023334;28;20222;-88
2022/10/06 01:17:31;;;;;;;6.20;4.00;;;11.80;99.90;;;;;;5051463;28;20183;-88
2022/10/06 01:20:07;;;;;;;4.03;3.60;;;11.60;99.90;;;;;;5051929;28;20287;-88
2022/10/06 01:22:36;;;;;;;5.47;3.87;;;11.60;99.90;;;;;;5035180;28;20200;-88
2022/10/06 01:25:07;;;;;;;5.77;3.70;;;11.50;99.90;;;;;;5051972;28;20211;-89
2022/10/06 01:27:34;;;;;;;5.73;4.10;;;11.50;99.90;;;;;;5051374;28;20207;-88
2022/10/06 01:30:01;;;;;;;5.60;3.63;;;11.40;99.90;;;;;;5052144;28;20237;-88
2022/10/06 01:32:33;;;;;;;5.13;3.80;;;11.40;99.90;;;;;;5051801;28;20199;-87
2022/10/06 01:34:59;;;;;;;5.87;3.93;;;11.40;99.90;;;;;;5053871;28;20175;-88
2022/10/06 01:37:25;;;;;;;4.23;3.77;;;11.30;99.90;;;;;;5038479;28;20172;-88
2022/10/06 01:39:52;;;;;;;3.93;3.63;;;11.30;99.90;;;;;;5035031;28;20195;-87
2022/10/06 04:04:37;;;;;;;5.67;3.70;;;10.50;99.90;;;;;;4838797;29;20214;-37
2022/10/06 04:07:07;;;;;;;5.17;3.63;;;10.50;99.90;;;;;;4839470;29;20202;-37
2022/10/06 04:09:35;;;;;;;6.40;3.77;;;10.50;99.90;;;;;;4839927;29;20209;-39
2022/10/06 04:12:01;;;;;;;4.10;3.50;;;10.60;99.90;;;;;;4824343;29;20206;-38
2022/10/06 04:14:28;;;;;;;4.57;3.47;;;10.50;99.90;;;;;;4824690;29;20174;-37
2022/10/06 04:16:56;;;;;;;5.30;4.27;;;10.50;99.90;;;;;;4818369;29;20185;-36
2022/10/06 04:19:48;;;;;;;6.73;4.20;;;10.40;99.90;;;;;;4826947;29;20685;-36
2022/10/06 04:22:14;;;;;;;4.73;3.53;;;10.30;99.90;;;;;;4839220;29;20245;-41
2022/10/06 04:24:41;;;;;;;5.60;3.53;;;10.20;99.90;;;;;;4824095;29;20209;-36
2022/10/06 04:27:27;;;;;;;5.30;3.93;;;10.10;99.90;;;;;;4823766;29;20181;-38
2022/10/06 04:30:00;;;;;;;4.13;3.73;;;10.10;99.90;;;;;;4824946;29;20212;-35
2022/10/06 04:32:28;;;;;;;6.47;3.93;;;10.20;99.90;;;;;;4824899;29;20224;-35
2022/10/06 04:34:54;;;;;;;6.10;4.10;;;10.20;99.90;;;;;;4838287;29;20228;-38
2022/10/06 04:37:22;;;;;;;6.17;3.90;;;10.10;99.90;;;;;;4838103;29;20195;-36
2022/10/06 04:39:48;;;;;;;5.13;3.90;;;10.10;99.90;;;;;;4839965;29;20224;-36
2022/10/06 04:42:14;;;;;;;4.53;3.77;;;10.20;99.90;;;;;;4838286;29;20228;-36
2022/10/06 04:44:39;;;;;;;7.33;4.20;;;10.30;99.90;;;;;;4838539;29;20204;-37
2022/10/06 04:47:06;;;;;;;6.90;3.90;;;10.30;99.90;;;;;;4838914;29;20234;-36
2022/10/06 04:49:32;;;;;;;5.43;3.80;;;10.30;99.90;;;;;;4824182;29;20185;-36
2022/10/06 04:51:58;;;;;;;5.77;3.90;;;10.20;99.90;;;;;;4823519;29;20198;-35
2022/10/06 04:54:24;;;;;;;5.03;4.10;;;10.20;99.90;;;;;;4838877;29;20212;-36
2022/10/06 04:56:56;;;;;;;5.83;3.90;;;10.10;99.90;;;;;;4824440;29;20642;-36
2022/10/06 05:00:21;;;;;;;3.70;3.40;;;10.10;99.90;;;;;;4824886;29;20276;-36
2022/10/06 05:02:10;;;;;;;6.27;3.70;;;10.20;99.90;;;;;;4838656;29;20207;-36
2022/10/06 05:04:37;;;;;;;5.23;3.60;;;10.30;99.90;;;;;;4823629;29;20201;-37
2022/10/06 05:07:03;;;;;;;5.03;3.73;;;10.30;99.90;;;;;;4838697;29;20193;-36
2022/10/06 05:09:30;;;;;;;3.47;3.17;;;10.30;99.90;;;;;;4838964;29;20677;-35
2022/10/06 05:11:56;;;;;;;3.63;3.30;;;10.30;99.90;;;;;;4838949;29;20225;-36
2022/10/06 05:14:22;;;;;;;5.73;4.00;;;10.20;99.90;;;;;;4838457;29;20186;-36
2022/10/06 05:16:49;;;;;;;6.03;3.33;;;10.20;99.90;;;;;;4838353;29;20181;-35
2022/10/06 05:19:15;;;;;;;4.47;3.50;;;10.20;99.90;;;;;;4838394;29;20201;-35
2022/10/06 05:21:41;;;;;;;6.27;3.93;;;10.20;99.90;;;;;;4823973;29;20201;-35
2022/10/06 05:24:10;;;;;;;6.40;3.97;;;10.10;99.90;;;;;;4824153;29;20214;-38
2022/10/06 05:26:37;;;;;;;5.77;3.77;;;10.10;99.90;;;;;;4823725;29;20213;-36
2022/10/06 05:29:07;;;;;;;5.40;4.07;;;10.10;99.90;;;;;;4839101;29;20182;-35
2022/10/06 05:31:39;;;;;;;5.43;3.77;;;10.00;99.90;;;;;;4838604;29;20296;-35
2022/10/06 05:34:06;;;;;;;6.13;4.10;;;9.90;99.90;;;;;;4838840;29;20212;-35
2022/10/06 05:36:32;;;;;;;6.63;4.20;;;9.90;99.90;;;;;;4838217;29;20181;-36
2022/10/06 05:39:00;;;;;;;5.03;3.50;;;9.80;99.90;;;;;;4838475;29;20193;-36
2022/10/06 05:41:32;;;;;;;4.63;3.57;;;9.90;99.90;;;;;;4824032;29;20240;-35
2022/10/06 05:44:00;;;;;;;4.67;3.87;;;9.90;99.90;;;;;;4839075;29;20189;-37
2022/10/06 05:46:29;;;;;;;6.50;4.00;;;9.90;99.90;;;;;;4823156;29;20208;-36
2022/10/06 05:48:59;;;;;;;4.77;3.93;;;10.00;99.90;;;;;;4841712;29;20272;-36
2022/10/06 05:51:31;;;;;;;4.33;3.93;;;9.90;99.90;;;;;;4826605;29;20197;-35
2022/10/06 05:53:59;;;;;;;6.60;4.00;;;10.00;99.90;;;;;;4825994;29;20184;-38
2022/10/06 05:56:36;;;;;;;4.50;4.00;;;10.10;99.90;;;;;;4842209;29;20193;-36
2022/10/06 05:59:06;;;;;;;4.10;3.70;;;10.10;99.90;;;;;;4842275;29;20189;-36
2022/10/06 06:01:35;;;;;;;4.80;3.83;;;10.10;99.90;;;;;;4844455;29;20213;-36
2022/10/06 06:04:09;;;;;;;4.37;3.30;;;10.10;99.90;;;;;;4846860;29;20207;-35
2022/10/06 06:06:45;;;;;;;6.67;4.00;;;10.10;99.90;;;;;;4832468;29;20213;-36
2022/10/06 06:09:20;;;;;;;6.63;3.70;;;10.20;99.90;;;;;;4828622;29;20234;-36
2022/10/06 06:11:51;;;;;;;8.67;4.43;;;10.20;99.90;;;;;;4826794;29;20304;-36
2022/10/06 06:15:59;;;;;;;6.30;4.17;;;10.30;99.90;;;;;;4826179;29;20209;-36
2022/10/06 06:17:10;;;;;;;5.07;3.80;;;10.40;99.90;;;;;;4841290;29;20193;-36
2022/10/06 06:19:38;;;;;;;6.27;4.30;;;10.50;99.90;;;;;;4826390;29;20651;-37
2022/10/06 06:22:05;;;;;;;6.00;4.13;;;10.50;99.90;;;;;;4828532;29;20244;-36
2022/10/06 06:24:34;;;;;;;5.83;4.27;;;10.60;99.90;;;;;;4841599;29;20234;-36
2022/10/06 06:27:00;;;;;;;5.33;3.80;;;10.50;99.90;;;;;;4840745;29;20238;-35
2022/10/06 06:29:26;;;;;;;5.93;4.20;;;10.60;99.90;;;;;;4840536;29;20185;-35
2022/10/06 06:31:52;;;;;;;4.40;4.00;;;10.60;99.90;;;;;;4841260;29;20217;-36
2022/10/06 06:34:18;;;;;;;4.87;3.77;;;10.70;99.90;;;;;;4825932;29;20205;-36
2022/10/06 06:36:47;;;;;;;6.30;4.10;;;10.80;99.90;;;;;;4840118;29;20191;-36
2022/10/06 06:39:17;;;;;;;4.70;3.90;;;10.90;99.90;;;;;;4825384;29;20186;-35
2022/10/06 06:41:45;;;;;;;5.50;4.00;;;10.90;99.90;;;;;;4826071;29;20216;-36
2022/10/06 06:44:41;;;;;;;7.90;4.63;;;11.00;99.90;;;;;;4829717;29;20193;-35
2022/10/06 06:47:16;;;;;;;5.70;3.70;;;11.00;99.90;;;;;;4827152;29;20186;-35
2022/10/06 06:49:46;;;;;;;5.33;3.70;;;11.00;99.90;;;;;;4825585;29;20194;-35
2022/10/06 06:52:12;;;;;;;5.33;3.83;;;11.20;99.90;;;;;;4841039;29;20226;-35
2022/10/06 06:54:39;;;;;;;5.17;3.67;;;11.20;99.90;;;;;;4841075;29;20182;-35
2022/10/06 06:57:12;;;;;;;7.30;4.00;;;11.20;99.90;;;;;;4840805;29;20183;-36
2022/10/06 06:59:38;;;;;;;6.90;4.23;;;11.30;99.90;;;;;;4824216;29;20189;-36
2022/10/06 07:02:08;;;;;;;7.43;4.80;;;11.40;99.90;;;;;;4840812;29;20245;-37
2022/10/06 07:04:37;;;;;;;7.20;4.80;;;11.40;99.90;;;;;;4840949;29;20195;-35
2022/10/06 07:07:04;;;;;;;5.47;4.40;;;11.50;99.90;;;;;;4839982;29;20187;-36
2022/10/06 07:09:33;;;;;;;6.33;4.07;;;11.50;99.90;;;;;;4840634;29;20291;-36
2022/10/06 07:12:04;;;;;;;7.33;4.63;;;11.60;99.90;;;;;;4825906;29;20219;-35
2022/10/06 07:14:30;;;;;;;6.67;4.33;;;11.70;99.90;;;;;;4840818;29;20199;-37
2022/10/06 07:25:24;;;;;;;59.47;10.10;;;11.80;99.90;;;;;;4840540;29;20299;-37
2022/10/06 07:27:52;;;;;;;13.83;6.77;;;11.80;99.90;;;;;;4825338;29;20190;-36
2022/10/06 07:30:29;;;;;;;14.57;6.77;;;11.90;99.90;;;;;;4840279;29;20287;-36
2022/10/06 07:33:00;;;;;;;9.30;6.20;;;11.90;99.90;;;;;;4824765;29;20202;-37
2022/10/06 07:35:26;;;;;;;7.77;6.80;;;12.00;99.90;;;;;;4824429;29;20193;-36
2022/10/06 07:37:52;;;;;;;9.97;5.67;;;12.00;99.90;;;;;;4825113;29;20236;-37
2022/10/06 07:40:20;;;;;;;6.90;6.20;;;12.00;99.90;;;;;;4838543;29;20195;-37
2022/10/06 07:42:50;;;;;;;9.07;6.40;;;12.10;99.90;;;;;;4840244;29;20199;-35
2022/10/06 07:45:45;;;;;;;8.97;6.40;;;12.10;99.90;;;;;;4825515;29;20219;-35
2022/10/06 07:48:19;;;;;;;7.23;5.97;;;12.10;99.90;;;;;;4825648;29;20191;-37
2022/10/06 07:50:51;;;;;;;7.93;5.93;;;12.20;99.90;;;;;;4825797;29;20325;-37
2022/10/06 07:53:26;;;;;;;8.40;6.07;;;12.20;99.90;;;;;;4840013;29;20212;-36
2022/10/06 07:56:05;;;;;;;7.77;5.67;;;12.30;99.90;;;;;;4840116;29;20235;-37
2022/10/06 07:58:36;;;;;;;8.23;6.60;;;12.30;99.90;;;;;;4825181;29;20257;-36
2022/10/06 08:01:10;;;;;;;7.23;5.63;;;12.30;99.90;;;;;;4824807;29;20212;-36
2022/10/06 08:03:37;;;;;;;9.77;5.37;;;12.40;99.90;;;;;;4839735;29;20677;-37
2022/10/06 08:06:03;;;;;;;6.77;5.00;;;12.30;99.90;;;;;;4839442;29;20502;-36
2022/10/06 08:08:31;;;;;;;5.93;5.27;;;12.40;99.90;;;;;;4840868;29;20211;-36
2022/10/06 08:10:58;;;;;;;9.47;5.13;;;12.40;99.90;;;;;;4839177;29;20253;-37
2022/10/06 08:13:24;;;;;;;9.77;5.43;;;12.50;99.90;;;;;;4824636;29;20199;-35
2022/10/06 08:15:51;;;;;;;6.97;4.90;;;12.60;99.90;;;;;;4839581;29;20232;-37
2022/10/06 08:18:17;;;;;;;8.50;4.90;;;12.60;99.90;;;;;;4840455;29;20194;-37
2022/10/06 08:20:44;;;;;;;5.63;4.50;;;12.70;99.90;;;;;;4839649;29;20213;-36
2022/10/06 08:23:11;;;;;;;7.37;4.40;;;12.70;99.90;;;;;;4824617;29;20197;-39
2022/10/06 08:25:43;;;;;;;7.07;5.70;;;12.80;99.90;;;;;;4839505;29;20220;-36
2022/10/06 08:28:10;;;;;;;8.27;5.90;;;12.80;99.90;;;;;;4839297;29;20192;-36
2022/10/06 08:30:36;;;;;;;6.70;5.17;;;12.80;99.90;;;;;;4839237;29;20231;-38
2022/10/06 08:33:04;;;;;;;6.83;5.43;;;12.90;99.90;;;;;;4824179;29;20187;-36
2022/10/06 08:35:31;;;;;;;8.17;5.63;;;13.00;99.90;;;;;;4839587;29;20192;-35
2022/10/06 08:37:57;;;;;;;6.87;5.37;;;13.00;99.90;;;;;;4839286;29;20208;-37
2022/10/06 08:40:24;;;;;;;9.87;5.70;;;13.10;99.90;;;;;;4839507;29;20190;-36
2022/10/06 08:42:52;;;;;;;7.63;5.20;;;13.20;99.90;;;;;;4839397;29;20200;-37
2022/10/06 08:45:40;;;;;;;6.20;4.90;;;13.20;99.90;;;;;;4839173;29;20209;-36
2022/10/06 08:48:13;;;;;;;7.03;5.20;;;13.30;99.90;;;;;;4823963;29;20193;-37
2022/10/06 08:51:08;;;;;;;7.47;5.10;;;13.40;99.90;;;;;;4839274;29;20201;-37
2022/10/06 08:54:01;;;;;;;6.33;4.60;;;13.40;99.90;;;;;;4823939;29;20185;-37
2022/10/06 08:56:34;;;;;;;6.90;5.17;;;13.50;99.90;;;;;;4839144;29;20189;-36
2022/10/06 08:59:03;;;;;;;11.10;5.40;;;13.50;99.90;;;;;;4824146;29;20185;-37
2022/10/06 09:01:40;;;;;;;8.50;5.47;;;13.60;99.90;;;;;;4823652;29;20209;-37
2022/10/06 09:04:06;;;;;;;7.83;4.83;;;13.60;99.90;;;;;;4838801;29;20228;-36
2022/10/06 09:06:47;;;;;;;4.93;4.50;;;13.70;99.90;;;;;;4838631;29;20230;-37
2022/10/06 09:09:47;;;;;;;7.33;4.90;;;13.70;99.90;;;;;;4840364;29;20185;-36
2022/10/06 09:12:26;;;;;;;6.80;5.13;;;13.70;99.90;;;;;;4838986;29;20232;-36
2022/10/06 09:15:13;;;;;;;7.40;4.43;;;13.80;99.90;;;;;;4839997;29;20224;-36
2022/10/06 09:17:46;;;;;;;5.87;4.10;;;13.80;99.90;;;;;;4838824;29;20181;-36
2022/10/06 09:20:26;;;;;;;6.30;4.30;;;13.80;99.90;;;;;;4823905;29;20248;-37
2022/10/06 09:22:54;;;;;;;4.07;3.67;;;13.80;99.90;;;;;;4842197;29;20185;-36
2022/10/06 09:25:26;;;;;;;4.40;4.00;;;13.80;99.90;;;;;;4842429;29;20223;-38
2022/10/06 09:27:54;;;;;;;4.97;4.20;;;13.90;99.90;;;;;;4842464;29;20204;-37
2022/10/06 09:30:21;;;;;;;5.07;4.30;;;13.90;99.90;;;;;;4843893;29;20189;-37
2022/10/06 09:32:57;;;;;;;6.37;4.57;;;14.00;99.90;;;;;;4843681;29;20184;-40
2022/10/06 09:35:26;;;;;;;9.00;4.40;;;14.10;99.90;;;;;;4842505;29;20192;-37
2022/10/06 09:38:03;;;;;;;6.77;4.27;;;14.10;99.90;;;;;;4842074;29;20197;-36
2022/10/06 09:40:35;;;;;;;10.47;4.57;;;14.20;99.90;;;;;;4827094;29;20276;-36
2022/10/06 09:43:04;;;;;;;6.77;4.30;;;14.30;99.90;;;;;;4827094;29;20196;-37
2022/10/06 09:45:30;;;;;;;6.10;4.50;;;14.40;99.90;;;;;;4826780;29;20223;-38
2022/10/06 09:48:12;;;;;;;6.23;5.07;;;14.50;99.90;;;;;;4841773;29;20181;-37
2022/10/06 09:50:38;;;;;;;5.83;4.03;;;14.60;99.90;;;;;;4827073;29;20212;-37
2022/10/06 09:53:10;;;;;;;5.03;4.37;;;14.80;99.90;;;;;;4841881;29;20186;-37
2022/10/06 09:55:36;;;;;;;5.27;4.30;;;14.90;99.90;;;;;;4826835;29;20200;-36
2022/10/06 09:58:22;;;;;;;5.67;3.97;;;15.00;99.90;;;;;;4841726;29;20197;-37
2022/10/06 10:00:55;;;;;;;6.17;3.87;;;15.20;99.90;;;;;;4816863;29;20243;-37
2022/10/06 10:03:24;;;;;;;6.90;4.50;;;15.20;99.90;;;;;;4842030;29;20189;-36
2022/10/06 10:05:55;;;;;;;6.97;4.00;;;15.20;99.90;;;;;;4826553;29;20270;-37
2022/10/06 10:08:30;;;;;;;8.47;4.47;;;15.20;99.90;;;;;;4841835;29;20182;-37
2022/10/06 10:12:23;;;;;;;6.20;4.00;;;15.20;99.90;;;;;;4841711;29;20674;-37
2022/10/06 10:13:57;;;;;;;5.47;4.10;;;15.20;99.90;;;;;;4841672;29;20277;-36
2022/10/06 10:16:33;;;;;;;4.20;3.80;;;15.20;99.90;;;;;;4843055;29;20205;-36
2022/10/06 10:19:04;;;;;;;4.43;3.87;;;15.20;99.90;;;;;;4842136;29;20220;-37
2022/10/06 10:21:35;;;;;;;8.00;3.60;;;15.30;99.90;;;;;;4842695;29;20205;-37
2022/10/06 10:24:05;;;;;;;4.53;3.90;;;15.30;99.90;;;;;;4842942;29;20181;-37
2022/10/06 10:26:58;;;;;;;4.30;3.90;;;15.40;99.90;;;;;;4826111;29;20241;-37
2022/10/06 10:29:58;;;;;;;6.00;4.50;;;15.50;99.90;;;;;;4841552;29;20195;-37
2022/10/06 10:33:10;;;;;;;7.37;4.50;;;15.50;99.90;;;;;;4818202;29;20792;-38
2022/10/06 10:35:40;;;;;;;6.77;4.70;;;15.60;99.90;;;;;;4785525;29;20190;-36
2022/10/06 10:38:21;;;;;;;8.47;5.00;;;15.60;99.90;;;;;;4772541;29;20195;-37
2022/10/06 10:41:13;;;;;;;6.63;5.00;;;15.80;99.90;;;;;;4819578;29;20227;-36
2022/10/06 10:43:47;;;;;;;10.47;5.57;;;15.90;99.90;;;;;;4834253;29;20198;-38
2022/10/06 10:46:48;;;;;;;8.00;4.97;;;16.10;99.90;;;;;;4840284;29;20219;-37
2022/10/06 10:49:30;;;;;;;7.70;4.60;;;16.40;99.90;;;;;;4835988;29;20257;-37
2022/10/06 10:52:19;;;;;;;5.90;3.20;;;16.60;99.90;;;;;;4807286;29;20217;-38
2022/10/06 10:55:10;;;;;;;5.27;2.90;;;16.70;99.90;;;;;;4807380;29;20189;-38
2022/10/06 10:57:40;;;;;;;4.93;2.40;;;16.90;99.90;;;;;;4822805;29;20269;-37
2022/10/06 11:00:11;;;;;;;3.03;2.03;;;17.10;99.90;;;;;;4807683;29;20186;-37
2022/10/06 11:02:39;;;;;;;4.55;2.38;;;17.40;99.90;;;;;;4807678;29;20190;-39
2022/10/06 11:05:41;;;;;;;5.82;2.20;;;17.60;99.90;;;;;;4807189;29;20217;-37
2022/10/06 11:08:23;;;;;;;5.50;1.98;;;17.80;99.90;;;;;;4823778;29;20189;-37
2022/10/06 11:11:01;;;;;;;4.57;2.00;;;18.00;99.90;;;;;;4822193;29;20671;-38
2022/10/06 11:13:47;;;;;;;3.70;1.90;;;18.10;99.90;;;;;;4823674;29;20177;-38
2022/10/06 11:16:43;;;;;;;3.83;1.67;;;18.40;99.90;;;;;;4823871;29;20200;-38
2022/10/06 11:19:26;;;;;;;3.67;1.65;;;18.60;99.90;;;;;;4822516;29;20201;-38
2022/10/06 11:22:02;;;;;;;2.60;1.40;;;18.90;99.90;;;;;;4840447;29;20209;-38
2022/10/06 11:24:50;;;;;;;2.22;1.30;;;19.20;99.90;;;;;;4840519;29;20185;-38
2022/10/06 11:27:31;;;;;;;3.88;1.48;;;19.40;99.90;;;;;;4825130;29;20199;-38
2022/10/06 11:30:12;;;;;;;2.92;1.83;;;19.40;99.90;;;;;;4825335;29;20185;-38
2022/10/06 11:33:01;;;;;;;2.60;1.73;;;19.50;99.90;;;;;;4841582;29;20249;-37
2022/10/06 11:35:40;;;;;;;3.63;1.70;;;19.40;99.90;;;;;;4840351;29;20212;-38
2022/10/06 11:38:31;;;;;;;3.72;1.88;;;19.30;99.90;;;;;;4839494;29;20250;-38
2022/10/06 11:41:09;;;;;;;5.25;1.90;;;19.30;99.90;;;;;;4841470;29;20205;-38
2022/10/06 11:43:53;;;;;;;4.22;1.80;;;19.40;99.90;;;;;;4840727;29;20177;-37
2022/10/06 11:46:40;;;;;;;3.92;1.60;;;19.30;99.90;;;;;;4822542;29;20296;-37
2022/10/06 11:49:28;;;;;;;3.75;1.42;;;19.50;99.90;;;;;;4838185;29;20201;-36
2022/10/06 11:52:13;;;;;;;2.80;1.58;;;19.50;99.90;;;;;;4839332;29;20671;-37
2022/10/06 11:54:42;;;;;;;4.00;1.85;;;19.70;99.90;;;;;;4822052;29;20192;-38
2022/10/06 11:57:23;;;;;;;4.78;1.65;;;19.70;99.90;;;;;;4823946;29;20185;-36
2022/10/06 12:00:02;;;;;;;4.13;1.95;;;19.80;99.90;;;;;;4838741;29;20226;-36
2022/10/06 12:02:36;;;;;;;2.60;1.75;;;19.90;99.90;;;;;;4837597;29;20201;-36
2022/10/06 12:05:14;;;;;;;4.65;1.70;;;20.10;99.90;;;;;;4837111;29;20273;-36
2022/10/06 12:07:55;;;;;;;2.90;1.60;;;20.40;99.90;;;;;;4821832;29;20181;-36
2022/10/06 12:10:27;;;;;;;2.60;2.13;;;20.50;99.90;;;;;;4822215;29;20238;-37
2022/10/06 12:13:14;;;;;;;4.07;1.83;;;20.60;99.90;;;;;;4840624;29;20264;-36
2022/10/06 12:16:09;;;;;;;2.53;1.55;;;20.60;99.90;;;;;;4839549;29;20185;-36
2022/10/06 12:19:15;;;;;;;3.35;1.90;;;20.50;99.90;;;;;;4823660;29;20345;-38
2022/10/06 12:21:46;;;;;;;3.50;1.45;;;20.20;99.90;;;;;;4823662;29;20208;-37
2022/10/06 12:24:44;;;;;;;3.35;1.63;;;20.00;99.90;;;;;;4838028;29;20224;-36
2022/10/06 12:27:25;;;;;;;2.83;1.80;;;19.90;99.90;;;;;;4838142;29;20196;-36
2022/10/06 12:29:58;;;;;;;2.65;1.55;;;19.80;99.90;;;;;;4823116;29;20214;-37
2022/10/06 12:32:57;;;;;;;3.33;1.50;;;19.90;99.90;;;;;;4822187;29;20288;-38
2022/10/06 12:35:38;;;;;;;4.38;1.70;;;19.90;99.90;;;;;;4821498;29;20204;-36
2022/10/06 12:38:43;;;;;;;5.53;1.60;;;19.90;99.90;;;;;;4837203;29;20196;-36
2022/10/06 12:41:11;;;;;;;4.20;1.63;;;19.90;99.90;;;;;;4795327;29;20220;-38
2022/10/06 12:43:52;;;;;;;4.07;1.70;;;19.90;99.90;;;;;;4838976;29;20252;-36
2022/10/06 12:46:24;;;;;;;3.35;1.40;;;19.90;99.90;;;;;;4823554;29;20216;-38
2022/10/06 12:49:11;;;;;;;2.55;1.67;;;20.10;99.90;;;;;;4837740;29;20256;-36
2022/10/06 12:51:42;;;;;;;2.75;1.67;;;20.40;99.90;;;;;;4838530;29;20201;-37
2022/10/06 12:54:08;;;;;;;2.17;1.55;;;20.80;99.90;;;;;;4838597;29;20181;-37
2022/10/06 12:56:41;;;;;;;4.68;1.40;;;21.10;99.90;;;;;;4838293;29;20189;-37
2022/10/06 12:59:23;;;;;;;4.32;1.60;;;21.40;99.90;;;;;;4838400;29;20211;-37
2022/10/06 13:01:54;;;;;;;5.45;2.00;;;21.40;99.90;;;;;;4822712;29;20258;-38
2022/10/06 13:04:43;;;;;;;4.07;1.75;;;21.20;99.90;;;;;;4822544;29;20201;-38
2022/10/06 13:07:18;;;;;;;3.83;2.00;;;21.00;99.90;;;;;;4821090;29;20197;-36
2022/10/06 13:09:48;;;;;;;5.68;1.60;;;20.80;99.90;;;;;;4838010;29;20188;-36
2022/10/06 13:12:39;;;;;;;3.05;1.50;;;20.70;99.90;;;;;;4836413;29;20233;-36
2022/10/06 13:15:20;;;;;;;3.30;1.67;;;20.50;99.90;;;;;;4838557;29;20250;-38
2022/10/06 13:18:21;;;;;;;3.70;1.55;;;20.30;99.90;;;;;;4837426;29;20208;-36
2022/10/06 13:20:55;;;;;;;2.50;1.42;;;20.00;99.90;;;;;;4820485;29;20212;-37
2022/10/06 13:23:33;;;;;;;5.65;1.50;;;19.90;99.90;;;;;;4838293;29;20185;-36
2022/10/06 13:26:21;;;;;;;3.92;1.55;;;20.00;99.90;;;;;;4821614;29;20316;-36
2022/10/06 13:28:54;;;;;;;4.85;1.80;;;20.20;99.90;;;;;;4837629;29;20185;-37
2022/10/06 13:31:35;;;;;;;4.30;1.70;;;20.50;99.90;;;;;;4837690;29;20296;-38
2022/10/06 13:34:01;;;;;;;3.42;1.50;;;20.90;99.90;;;;;;4837668;29;20177;-37
2022/10/06 13:36:28;;;;;;;2.72;1.52;;;21.30;99.90;;;;;;4824709;29;20216;-38
2022/10/06 13:38:55;;;;;;;2.70;1.45;;;21.60;99.90;;;;;;4822984;29;20197;-37
2022/10/06 13:41:28;;;;;;;3.60;1.58;;;21.90;99.90;;;;;;4822653;29;20220;-37
2022/10/06 13:43:59;;;;;;;4.38;1.60;;;21.90;99.90;;;;;;4838307;29;20190;-38
2022/10/06 13:46:28;;;;;;;3.65;1.40;;;22.00;99.90;;;;;;4836293;29;20682;-38
2022/10/06 13:49:17;;;;;;;4.35;1.75;;;22.00;99.90;;;;;;4822965;29;20190;-38
2022/10/06 13:51:49;;;;;;;5.00;1.80;;;21.80;99.90;;;;;;4837852;29;20209;-36
2022/10/06 13:54:34;;;;;;;3.70;1.67;;;21.60;99.90;;;;;;4824187;29;20182;-38
2022/10/06 13:57:00;;;;;;;4.57;1.55;;;21.50;99.90;;;;;;4840128;29;20245;-36
2022/10/06 13:59:26;;;;;;;3.38;1.60;;;21.40;99.90;;;;;;4840314;29;20185;-36
2022/10/06 14:01:53;;;;;;;3.97;1.65;;;21.20;99.90;;;;;;4838212;29;20248;-37
2022/10/06 14:04:19;;;;;;;2.35;1.20;;;21.00;99.90;;;;;;4839732;29;20204;-38
2022/10/06 14:06:52;;;;;;;6.80;1.35;;;20.80;99.90;;;;;;4837923;29;20205;-36
2022/10/06 14:09:29;;;;;;;2.00;1.30;;;20.60;99.90;;;;;;4852087;29;20193;-37
2022/10/06 14:12:12;;;;;;;4.20;1.40;;;20.50;99.90;;;;;;4841732;29;20230;-38
2022/10/06 14:14:38;;;;;;;2.03;1.30;;;20.40;99.90;;;;;;4841484;29;20228;-37
2022/10/06 14:17:05;;;;;;;2.42;1.45;;;20.30;99.90;;;;;;4841236;29;20261;-37
2022/10/06 14:19:40;;;;;;;5.20;1.85;;;20.20;99.90;;;;;;4842207;29;20268;-38
2022/10/06 14:22:31;;;;;;;3.03;1.50;;;20.30;99.90;;;;;;4826384;29;20292;-37
2022/10/06 14:24:57;;;;;;;3.78;1.60;;;20.30;99.90;;;;;;4842834;29;20213;-37
2022/10/06 14:27:22;;;;;;;4.80;1.50;;;20.30;99.90;;;;;;4842548;29;20178;-38
2022/10/06 14:29:48;;;;;;;3.00;1.50;;;20.10;99.90;;;;;;4841913;29;20200;-37
2022/10/06 14:32:16;;;;;;;4.00;2.03;;;20.10;99.90;;;;;;4840368;29;20317;-36
2022/10/06 14:34:43;;;;;;;4.57;1.45;;;20.10;99.90;;;;;;4841730;29;20178;-36
2022/10/06 14:37:13;;;;;;;2.05;1.40;;;20.20;99.90;;;;;;4840939;29;20674;-36
2022/10/06 14:39:41;;;;;;;5.63;2.28;;;20.30;99.90;;;;;;4839385;29;20196;-36
2022/10/06 14:42:07;;;;;;;3.30;2.20;;;20.20;99.90;;;;;;4825090;29;20213;-38
2022/10/06 14:44:33;;;;;;;4.72;2.20;;;20.30;99.90;;;;;;4841079;29;20225;-37
2022/10/06 14:46:59;;;;;;;3.33;1.80;;;20.30;99.90;;;;;;4840226;29;20236;-37
2022/10/06 14:49:25;;;;;;;3.40;1.30;;;20.40;99.90;;;;;;4840589;29;20193;-38
2022/10/06 14:51:55;;;;;;;2.90;1.48;;;20.40;99.90;;;;;;4825015;29;20205;-38
2022/10/06 14:54:21;;;;;;;3.08;1.30;;;20.40;99.90;;;;;;4824758;29;20213;-38
2022/10/06 14:56:52;;;;;;;3.90;1.63;;;20.40;99.90;;;;;;4826110;29;20224;-36
2022/10/06 14:59:19;;;;;;;5.35;1.42;;;20.40;99.90;;;;;;4841148;29;20201;-37
2022/10/06 15:01:46;;;;;;;5.30;1.75;;;20.40;99.90;;;;;;4840988;29;20218;-36
2022/10/06 15:04:15;;;;;;;5.03;1.67;;;20.30;99.90;;;;;;4840867;29;20235;-37
2022/10/06 15:09:26;;;;;;;4.82;1.73;;;20.00;99.90;;;;;;4840879;29;20185;-38
2022/10/06 15:11:53;;;;;;;6.30;1.30;;;19.80;99.90;;;;;;4840963;29;20197;-37
2022/10/06 15:14:21;;;;;;;6.28;1.73;;;19.60;99.90;;;;;;4840315;29;20188;-36
2022/10/06 15:16:48;;;;;;;6.38;1.70;;;19.40;99.90;;;;;;4841747;29;20657;-36
2022/10/06 15:19:16;;;;;;;3.20;1.30;;;19.30;99.90;;;;;;4840259;29;20185;-36
2022/10/06 15:21:46;;;;;;;4.93;1.45;;;19.20;99.90;;;;;;4825286;29;20227;-36
2022/10/06 15:24:15;;;;;;;6.07;1.48;;;19.10;99.90;;;;;;4840704;29;20279;-37
2022/10/06 15:29:26;;;;;;;4.78;1.85;;;18.80;99.90;;;;;;4841725;29;20205;-35
2022/10/06 15:31:53;;;;;;;4.60;1.63;;;18.70;99.90;;;;;;4837972;29;20205;-37
2022/10/06 15:34:25;;;;;;;5.50;1.40;;;18.60;99.90;;;;;;4839371;29;20188;-37
2022/10/06 15:36:52;;;;;;;7.28;1.90;;;18.60;99.90;;;;;;4841211;29;20189;-38
2022/10/06 15:39:26;;;;;;;4.57;1.60;;;18.60;99.90;;;;;;4840172;29;20223;-36
2022/10/06 15:41:53;;;;;;;2.90;1.45;;;18.60;99.90;;;;;;4840577;29;20216;-36
2022/10/06 15:44:20;;;;;;;3.35;1.30;;;18.60;99.90;;;;;;4839161;29;20201;-37
2022/10/06 15:46:48;;;;;;;7.85;1.83;;;18.60;99.90;;;;;;4840792;29;20228;-36
2022/10/06 15:49:24;;;;;;;5.18;1.67;;;18.60;99.90;;;;;;4839689;29;20185;-36
2022/10/06 15:51:53;;;;;;;7.10;1.58;;;18.50;99.90;;;;;;4809504;29;20205;-38
2022/10/06 15:54:28;;;;;;;6.32;1.60;;;18.50;99.90;;;;;;4839702;29;20181;-36